sensor_id;sensor_type;location;lat;lon;timestamp;pressure;altitude;pressure_sealevel;temperature;humidity
13581;BME280;6861;46.170;7.222;2023-12-04T00:00:14;96334.78;;;-1.57;59.31
13581;BME280;6861;46.170;7.222;2023-12-04T00:02:42;96336.56;;;-1.57;59.49
13581;BME280;6861;46.170;7.222;2023-12-04T00:05:12;96347.63;;;-1.57;59.27
13581;BME280;6861;46.170;7.222;2023-12-04T00:07:49;96347.88;;;-1.52;59.44
13581;BME280;6861;46.170;7.222;2023-12-04T00:10:17;96349.13;;;-1.48;58.98
13581;BME280;6861;46.170;7.222;2023-12-04T00:12:46;96347.16;;;-1.46;59.08
13581;BME280;6861;46.170;7.222;2023-12-04T00:15:14;96349.00;;;-1.40;59.09
13581;BME280;6861;46.170;7.222;2023-12-04T00:17:43;96339.44;;;-1.31;58.73
13581;BME280;6861;46.170;7.222;2023-12-04T00:20:11;96341.72;;;-1.21;58.81
13581;BME280;6861;46.170;7.222;2023-12-04T00:22:39;96339.41;;;-1.16;58.85
13581;BME280;6861;46.170;7.222;2023-12-04T00:25:09;96315.44;;;-1.23;58.90
13581;BME280;6861;46.170;7.222;2023-12-04T00:27:37;96325.69;;;-1.23;58.65
13581;BME280;6861;46.170;7.222;2023-12-04T00:30:07;96319.41;;;-1.21;58.80
13581;BME280;6861;46.170;7.222;2023-12-04T00:32:35;96330.97;;;-1.10;58.88
13581;BME280;6861;46.170;7.222;2023-12-04T00:35:04;96316.78;;;-1.06;58.78
13581;BME280;6861;46.170;7.222;2023-12-04T00:37:33;96323.22;;;-0.95;58.42
13581;BME280;6861;46.170;7.222;2023-12-04T00:40:06;96308.84;;;-0.90;58.10
13581;BME280;6861;46.170;7.222;2023-12-04T00:42:36;96303.53;;;-0.88;58.06
13581;BME280;6861;46.170;7.222;2023-12-04T00:45:05;96305.06;;;-0.94;58.06
13581;BME280;6861;46.170;7.222;2023-12-04T00:47:34;96301.25;;;-0.98;58.23
13581;BME280;6861;46.170;7.222;2023-12-04T00:50:03;96290.38;;;-1.00;58.25
13581;BME280;6861;46.170;7.222;2023-12-04T00:52:31;96281.56;;;-1.12;58.32
13581;BME280;6861;46.170;7.222;2023-12-04T00:54:59;96280.72;;;-1.19;58.54
13581;BME280;6861;46.170;7.222;2023-12-04T00:57:27;96277.53;;;-1.21;58.07
13581;BME280;6861;46.170;7.222;2023-12-04T00:59:58;96286.94;;;-1.28;58.65
13581;BME280;6861;46.170;7.222;2023-12-04T01:02:26;96285.09;;;-1.35;58.30
13581;BME280;6861;46.170;7.222;2023-12-04T01:04:54;96276.19;;;-1.39;58.84
13581;BME280;6861;46.170;7.222;2023-12-04T01:07:23;96261.88;;;-1.48;59.10
13581;BME280;6861;46.170;7.222;2023-12-04T01:09:51;96254.63;;;-1.59;59.14
13581;BME280;6861;46.170;7.222;2023-12-04T01:12:19;96267.56;;;-1.67;59.36
13581;BME280;6861;46.170;7.222;2023-12-04T01:14:48;96260.00;;;-1.75;59.08
13581;BME280;6861;46.170;7.222;2023-12-04T01:17:17;96258.72;;;-1.86;59.86
13581;BME280;6861;46.170;7.222;2023-12-04T01:19:45;96263.41;;;-1.89;59.95
13581;BME280;6861;46.170;7.222;2023-12-04T01:22:14;96259.88;;;-1.88;60.08
13581;BME280;6861;46.170;7.222;2023-12-04T01:24:42;96257.91;;;-1.86;59.69
13581;BME280;6861;46.170;7.222;2023-12-04T01:27:10;96260.72;;;-1.81;59.60
13581;BME280;6861;46.170;7.222;2023-12-04T01:29:39;96263.16;;;-1.73;59.79
13581;BME280;6861;46.170;7.222;2023-12-04T01:32:07;96253.97;;;-1.68;59.99
13581;BME280;6861;46.170;7.222;2023-12-04T01:34:37;96255.00;;;-1.62;59.59
13581;BME280;6861;46.170;7.222;2023-12-04T01:37:05;96253.91;;;-1.53;59.54
13581;BME280;6861;46.170;7.222;2023-12-04T01:39:34;96250.25;;;-1.44;59.08
13581;BME280;6861;46.170;7.222;2023-12-04T01:42:02;96258.38;;;-1.40;58.64
13581;BME280;6861;46.170;7.222;2023-12-04T01:44:30;96244.41;;;-1.38;58.65
13581;BME280;6861;46.170;7.222;2023-12-04T01:46:59;96245.00;;;-1.36;58.97
13581;BME280;6861;46.170;7.222;2023-12-04T01:49:27;96248.63;;;-1.30;59.00
13581;BME280;6861;46.170;7.222;2023-12-04T01:51:57;96244.34;;;-1.23;58.70
13581;BME280;6861;46.170;7.222;2023-12-04T01:54:26;96248.31;;;-1.20;59.01
13581;BME280;6861;46.170;7.222;2023-12-04T01:56:54;96238.03;;;-1.20;59.14
13581;BME280;6861;46.170;7.222;2023-12-04T01:59:24;96236.47;;;-1.21;58.85
13581;BME280;6861;46.170;7.222;2023-12-04T02:01:53;96235.47;;;-1.20;58.99
13581;BME280;6861;46.170;7.222;2023-12-04T02:04:22;96222.88;;;-1.15;58.92
13581;BME280;6861;46.170;7.222;2023-12-04T02:06:50;96224.41;;;-1.21;58.89
13581;BME280;6861;46.170;7.222;2023-12-04T02:09:20;96215.69;;;-1.26;58.72
13581;BME280;6861;46.170;7.222;2023-12-04T02:11:48;96226.13;;;-1.28;58.77
13581;BME280;6861;46.170;7.222;2023-12-04T02:14:16;96227.53;;;-1.25;58.95
13581;BME280;6861;46.170;7.222;2023-12-04T02:16:45;96221.25;;;-1.23;58.98
13581;BME280;6861;46.170;7.222;2023-12-04T02:19:14;96224.59;;;-1.22;59.04
13581;BME280;6861;46.170;7.222;2023-12-04T02:21:42;96228.38;;;-1.18;58.99
13581;BME280;6861;46.170;7.222;2023-12-04T02:24:12;96232.72;;;-1.19;58.52
13581;BME280;6861;46.170;7.222;2023-12-04T02:26:47;96224.59;;;-1.22;58.85
13581;BME280;6861;46.170;7.222;2023-12-04T02:29:23;96222.41;;;-1.25;58.92
13581;BME280;6861;46.170;7.222;2023-12-04T02:31:55;96230.97;;;-1.18;58.83
13581;BME280;6861;46.170;7.222;2023-12-04T02:34:25;96221.13;;;-1.15;58.86
13581;BME280;6861;46.170;7.222;2023-12-04T02:36:54;96226.84;;;-1.13;58.83
13581;BME280;6861;46.170;7.222;2023-12-04T02:39:24;96213.66;;;-1.10;58.77
13581;BME280;6861;46.170;7.222;2023-12-04T02:41:53;96208.94;;;-1.06;58.68
13581;BME280;6861;46.170;7.222;2023-12-04T02:44:21;96209.41;;;-0.96;58.60
13581;BME280;6861;46.170;7.222;2023-12-04T02:46:50;96210.88;;;-0.87;58.77
13581;BME280;6861;46.170;7.222;2023-12-04T02:49:18;96187.38;;;-0.77;58.39
13581;BME280;6861;46.170;7.222;2023-12-04T02:51:46;96185.44;;;-0.75;58.28
13581;BME280;6861;46.170;7.222;2023-12-04T02:54:15;96179.13;;;-0.73;58.00
13581;BME280;6861;46.170;7.222;2023-12-04T02:56:44;96172.53;;;-0.82;58.11
13581;BME280;6861;46.170;7.222;2023-12-04T02:59:13;96161.47;;;-0.89;58.41
13581;BME280;6861;46.170;7.222;2023-12-04T03:01:41;96160.84;;;-0.91;58.52
13581;BME280;6861;46.170;7.222;2023-12-04T03:04:09;96155.72;;;-0.91;58.38
13581;BME280;6861;46.170;7.222;2023-12-04T03:06:38;96157.31;;;-0.90;58.61
13581;BME280;6861;46.170;7.222;2023-12-04T03:09:06;96157.69;;;-0.86;58.26
13581;BME280;6861;46.170;7.222;2023-12-04T03:11:34;96138.16;;;-0.81;58.45
13581;BME280;6861;46.170;7.222;2023-12-04T03:14:04;96141.56;;;-0.74;58.15
13581;BME280;6861;46.170;7.222;2023-12-04T03:16:32;96135.28;;;-0.64;58.45
13581;BME280;6861;46.170;7.222;2023-12-04T03:19:01;96146.47;;;-0.44;58.16
13581;BME280;6861;46.170;7.222;2023-12-04T03:21:29;96145.88;;;-0.40;57.90
13581;BME280;6861;46.170;7.222;2023-12-04T03:23:57;96141.38;;;-0.31;57.74
13581;BME280;6861;46.170;7.222;2023-12-04T03:26:26;96134.09;;;-0.21;57.54
13581;BME280;6861;46.170;7.222;2023-12-04T03:28:55;96144.59;;;-0.16;57.47
13581;BME280;6861;46.170;7.222;2023-12-04T03:31:25;96139.06;;;-0.13;57.28
13581;BME280;6861;46.170;7.222;2023-12-04T03:33:53;96135.50;;;-0.12;57.10
13581;BME280;6861;46.170;7.222;2023-12-04T03:36:21;96114.94;;;-0.12;57.35
13581;BME280;6861;46.170;7.222;2023-12-04T03:38:50;96115.94;;;-0.06;57.05
13581;BME280;6861;46.170;7.222;2023-12-04T03:41:18;96115.53;;;-0.10;57.12
13581;BME280;6861;46.170;7.222;2023-12-04T03:43:46;96110.38;;;-0.16;57.50
13581;BME280;6861;46.170;7.222;2023-12-04T03:46:14;96101.28;;;-0.19;57.41
13581;BME280;6861;46.170;7.222;2023-12-04T03:48:46;96093.34;;;-0.24;57.51
13581;BME280;6861;46.170;7.222;2023-12-04T03:51:14;96090.59;;;-0.22;57.61
13581;BME280;6861;46.170;7.222;2023-12-04T03:53:43;96097.31;;;-0.15;57.31
13581;BME280;6861;46.170;7.222;2023-12-04T03:56:11;96091.78;;;-0.12;57.21
13581;BME280;6861;46.170;7.222;2023-12-04T03:58:39;96097.16;;;0.00;57.19
13581;BME280;6861;46.170;7.222;2023-12-04T04:01:08;96094.56;;;0.07;57.01
13581;BME280;6861;46.170;7.222;2023-12-04T04:03:36;96100.13;;;0.04;57.07
13581;BME280;6861;46.170;7.222;2023-12-04T04:06:09;96093.00;;;0.06;57.17
13581;BME280;6861;46.170;7.222;2023-12-04T04:08:37;96094.41;;;0.15;57.09
13581;BME280;6861;46.170;7.222;2023-12-04T04:11:06;96089.63;;;0.12;56.93
13581;BME280;6861;46.170;7.222;2023-12-04T04:13:34;96086.47;;;0.16;56.99
13581;BME280;6861;46.170;7.222;2023-12-04T04:16:04;96070.44;;;0.21;56.96
13581;BME280;6861;46.170;7.222;2023-12-04T04:18:32;96069.66;;;0.27;56.68
13581;BME280;6861;46.170;7.222;2023-12-04T04:21:01;96058.78;;;0.31;56.53
13581;BME280;6861;46.170;7.222;2023-12-04T04:23:31;96060.75;;;0.36;56.83
13581;BME280;6861;46.170;7.222;2023-12-04T04:25:59;96054.63;;;0.37;56.60
13581;BME280;6861;46.170;7.222;2023-12-04T04:28:27;96061.16;;;0.40;56.51
13581;BME280;6861;46.170;7.222;2023-12-04T04:30:56;96060.75;;;0.36;56.61
13581;BME280;6861;46.170;7.222;2023-12-04T04:33:24;96053.84;;;0.30;56.97
13581;BME280;6861;46.170;7.222;2023-12-04T04:35:53;96053.25;;;0.28;56.55
13581;BME280;6861;46.170;7.222;2023-12-04T04:38:21;96055.22;;;0.32;56.52
13581;BME280;6861;46.170;7.222;2023-12-04T04:40:51;96037.81;;;0.35;56.75
13581;BME280;6861;46.170;7.222;2023-12-04T04:43:19;96028.31;;;0.28;56.64
13581;BME280;6861;46.170;7.222;2023-12-04T04:45:47;96020.78;;;0.27;56.64
13581;BME280;6861;46.170;7.222;2023-12-04T04:48:16;96032.25;;;0.31;56.42
13581;BME280;6861;46.170;7.222;2023-12-04T04:50:44;96035.41;;;0.40;56.93
13581;BME280;6861;46.170;7.222;2023-12-04T04:53:13;96030.28;;;0.46;56.64
13581;BME280;6861;46.170;7.222;2023-12-04T04:55:41;96025.53;;;0.43;56.11
13581;BME280;6861;46.170;7.222;2023-12-04T04:58:16;96005.34;;;0.40;56.25
13581;BME280;6861;46.170;7.222;2023-12-04T05:00:45;96003.94;;;0.44;56.58
13581;BME280;6861;46.170;7.222;2023-12-04T05:03:15;95993.84;;;0.43;56.83
13581;BME280;6861;46.170;7.222;2023-12-04T05:05:43;96008.09;;;0.45;56.24
13581;BME280;6861;46.170;7.222;2023-12-04T05:08:12;96027.50;;;0.54;56.91
13581;BME280;6861;46.170;7.222;2023-12-04T05:10:40;96026.09;;;0.58;56.31
13581;BME280;6861;46.170;7.222;2023-12-04T05:13:09;96019.56;;;0.49;56.51
13581;BME280;6861;46.170;7.222;2023-12-04T05:15:39;96021.75;;;0.46;56.42
13581;BME280;6861;46.170;7.222;2023-12-04T05:18:07;96028.88;;;0.50;56.78
13581;BME280;6861;46.170;7.222;2023-12-04T05:20:35;96016.19;;;0.55;56.78
13581;BME280;6861;46.170;7.222;2023-12-04T05:23:03;96012.84;;;0.55;55.77
13581;BME280;6861;46.170;7.222;2023-12-04T05:25:32;96015.63;;;0.53;56.51
13581;BME280;6861;46.170;7.222;2023-12-04T05:28:10;96016.78;;;0.57;56.49
13581;BME280;6861;46.170;7.222;2023-12-04T05:30:40;96014.81;;;0.59;56.18
13581;BME280;6861;46.170;7.222;2023-12-04T05:33:09;95998.97;;;0.62;55.92
13581;BME280;6861;46.170;7.222;2023-12-04T05:35:38;95986.28;;;0.68;56.22
13581;BME280;6861;46.170;7.222;2023-12-04T05:38:06;95988.25;;;0.72;55.90
13581;BME280;6861;46.170;7.222;2023-12-04T05:40:35;95989.03;;;0.73;56.43
13581;BME280;6861;46.170;7.222;2023-12-04T05:43:03;95992.19;;;0.75;56.61
13581;BME280;6861;46.170;7.222;2023-12-04T05:45:31;95984.47;;;0.75;56.37
13581;BME280;6861;46.170;7.222;2023-12-04T05:48:02;95970.44;;;0.71;56.21
13581;BME280;6861;46.170;7.222;2023-12-04T05:50:30;95965.09;;;0.65;56.68
13581;BME280;6861;46.170;7.222;2023-12-04T05:52:58;95958.16;;;0.66;56.43
13581;BME280;6861;46.170;7.222;2023-12-04T05:55:26;95971.59;;;0.75;56.33
13581;BME280;6861;46.170;7.222;2023-12-04T05:57:55;95968.47;;;0.59;56.45
13581;BME280;6861;46.170;7.222;2023-12-04T06:00:23;95962.53;;;0.59;56.53
13581;BME280;6861;46.170;7.222;2023-12-04T06:02:55;95972.25;;;0.57;56.52
13581;BME280;6861;46.170;7.222;2023-12-04T06:05:25;95955.81;;;0.51;56.66
13581;BME280;6861;46.170;7.222;2023-12-04T06:07:53;95955.41;;;0.54;57.14
13581;BME280;6861;46.170;7.222;2023-12-04T06:10:21;95962.94;;;0.56;56.88
13581;BME280;6861;46.170;7.222;2023-12-04T06:12:49;95962.91;;;0.62;56.62
13581;BME280;6861;46.170;7.222;2023-12-04T06:15:18;95962.88;;;0.76;56.68
13581;BME280;6861;46.170;7.222;2023-12-04T06:17:46;95965.59;;;0.87;56.36
13581;BME280;6861;46.170;7.222;2023-12-04T06:20:15;95950.94;;;0.88;56.62
13581;BME280;6861;46.170;7.222;2023-12-04T06:22:45;95935.91;;;0.85;56.27
13581;BME280;6861;46.170;7.222;2023-12-04T06:25:15;95932.38;;;0.79;56.07
13581;BME280;6861;46.170;7.222;2023-12-04T06:27:45;95927.59;;;0.83;56.61
13581;BME280;6861;46.170;7.222;2023-12-04T06:30:15;95919.28;;;0.81;56.61
13581;BME280;6861;46.170;7.222;2023-12-04T06:32:44;95909.16;;;0.86;56.81
13581;BME280;6861;46.170;7.222;2023-12-04T06:35:13;95900.25;;;0.82;56.60
13581;BME280;6861;46.170;7.222;2023-12-04T06:37:48;95899.88;;;0.78;56.83
13581;BME280;6861;46.170;7.222;2023-12-04T06:40:17;95890.41;;;0.72;56.67
13581;BME280;6861;46.170;7.222;2023-12-04T06:42:47;95885.88;;;0.68;56.63
13581;BME280;6861;46.170;7.222;2023-12-04T06:45:16;95896.97;;;0.61;56.73
13581;BME280;6861;46.170;7.222;2023-12-04T06:47:46;95907.09;;;0.56;56.77
13581;BME280;6861;46.170;7.222;2023-12-04T06:50:18;95903.34;;;0.52;56.60
13581;BME280;6861;46.170;7.222;2023-12-04T06:52:48;95908.50;;;0.46;57.41
13581;BME280;6861;46.170;7.222;2023-12-04T06:55:16;95898.41;;;0.44;57.18
13581;BME280;6861;46.170;7.222;2023-12-04T06:57:45;95896.84;;;0.43;57.15
13581;BME280;6861;46.170;7.222;2023-12-04T07:00:14;95887.72;;;0.47;57.70
13581;BME280;6861;46.170;7.222;2023-12-04T07:02:48;95886.13;;;0.53;57.06
13581;BME280;6861;46.170;7.222;2023-12-04T07:05:18;95886.09;;;0.59;57.29
13581;BME280;6861;46.170;7.222;2023-12-04T07:07:49;95885.06;;;0.67;57.07
13581;BME280;6861;46.170;7.222;2023-12-04T07:10:18;95880.91;;;0.66;57.28
13581;BME280;6861;46.170;7.222;2023-12-04T07:12:47;95870.03;;;0.64;57.21
13581;BME280;6861;46.170;7.222;2023-12-04T07:15:15;95890.81;;;0.69;56.92
13581;BME280;6861;46.170;7.222;2023-12-04T07:17:44;95883.47;;;0.73;57.43
13581;BME280;6861;46.170;7.222;2023-12-04T07:20:12;95876.31;;;0.75;57.06
13581;BME280;6861;46.170;7.222;2023-12-04T07:22:41;95889.19;;;0.75;57.45
13581;BME280;6861;46.170;7.222;2023-12-04T07:25:11;95895.53;;;0.79;57.17
13581;BME280;6861;46.170;7.222;2023-12-04T07:27:39;95908.56;;;0.84;56.80
13581;BME280;6861;46.170;7.222;2023-12-04T07:30:08;95929.09;;;0.97;56.93
13581;BME280;6861;46.170;7.222;2023-12-04T07:32:36;95944.91;;;1.07;56.44
13581;BME280;6861;46.170;7.222;2023-12-04T07:35:06;95928.22;;;1.16;56.58
13581;BME280;6861;46.170;7.222;2023-12-04T07:37:35;95913.34;;;1.18;56.58
13581;BME280;6861;46.170;7.222;2023-12-04T07:40:04;95910.34;;;1.21;56.61
13581;BME280;6861;46.170;7.222;2023-12-04T07:42:38;95921.81;;;1.25;56.72
13581;BME280;6861;46.170;7.222;2023-12-04T07:45:14;95911.09;;;1.28;56.79
13581;BME280;6861;46.170;7.222;2023-12-04T07:48:01;95894.47;;;1.24;56.51
13581;BME280;6861;46.170;7.222;2023-12-04T07:50:30;95900.63;;;1.23;56.86
13581;BME280;6861;46.170;7.222;2023-12-04T07:53:05;95910.34;;;1.21;57.27
13581;BME280;6861;46.170;7.222;2023-12-04T07:55:35;95891.31;;;1.22;57.36
13581;BME280;6861;46.170;7.222;2023-12-04T07:58:05;95907.97;;;1.20;57.18
13581;BME280;6861;46.170;7.222;2023-12-04T08:00:35;95907.78;;;1.21;57.07
13581;BME280;6861;46.170;7.222;2023-12-04T08:03:04;95904.91;;;1.36;57.08
13581;BME280;6861;46.170;7.222;2023-12-04T08:05:34;95898.50;;;1.45;56.50
13581;BME280;6861;46.170;7.222;2023-12-04T08:08:04;95902.63;;;1.53;57.05
13581;BME280;6861;46.170;7.222;2023-12-04T08:10:34;95898.78;;;1.62;56.36
13581;BME280;6861;46.170;7.222;2023-12-04T08:13:08;95887.22;;;1.71;56.68
13581;BME280;6861;46.170;7.222;2023-12-04T08:15:39;95886.50;;;1.82;56.60
13581;BME280;6861;46.170;7.222;2023-12-04T08:18:08;95898.41;;;1.83;56.56
13581;BME280;6861;46.170;7.222;2023-12-04T08:20:37;95899.97;;;1.84;55.88
13581;BME280;6861;46.170;7.222;2023-12-04T08:23:08;95899.28;;;1.95;56.27
13581;BME280;6861;46.170;7.222;2023-12-04T08:25:37;95915.53;;;2.21;55.85
13581;BME280;6861;46.170;7.222;2023-12-04T08:28:08;95919.88;;;2.45;55.09
13581;BME280;6861;46.170;7.222;2023-12-04T08:30:39;95905.56;;;2.61;55.06
13581;BME280;6861;46.170;7.222;2023-12-04T08:33:10;95910.59;;;2.74;54.67
13581;BME280;6861;46.170;7.222;2023-12-04T08:35:40;95898.31;;;2.70;54.82
13581;BME280;6861;46.170;7.222;2023-12-04T08:38:13;95899.13;;;2.70;54.70
13581;BME280;6861;46.170;7.222;2023-12-04T08:40:44;95896.19;;;2.67;54.50
13581;BME280;6861;46.170;7.222;2023-12-04T08:43:19;95895.59;;;2.64;54.35
13581;BME280;6861;46.170;7.222;2023-12-04T08:45:55;95891.66;;;2.62;54.66
13581;BME280;6861;46.170;7.222;2023-12-04T08:48:39;95892.66;;;2.61;55.01
13581;BME280;6861;46.170;7.222;2023-12-04T08:51:15;95903.06;;;2.73;54.96
13581;BME280;6861;46.170;7.222;2023-12-04T08:53:46;95914.53;;;2.77;54.44
13581;BME280;6861;46.170;7.222;2023-12-04T08:56:25;95917.41;;;2.87;53.81
13581;BME280;6861;46.170;7.222;2023-12-04T08:59:06;95901.75;;;2.82;54.17
13581;BME280;6861;46.170;7.222;2023-12-04T09:01:41;95903.56;;;2.81;54.11
13581;BME280;6861;46.170;7.222;2023-12-04T09:04:14;95905.63;;;2.91;54.32
13581;BME280;6861;46.170;7.222;2023-12-04T09:06:46;95890.31;;;3.08;53.47
13581;BME280;6861;46.170;7.222;2023-12-04T09:10:00;95897.38;;;3.31;53.26
13581;BME280;6861;46.170;7.222;2023-12-04T09:13:07;95906.19;;;3.65;52.74
13581;BME280;6861;46.170;7.222;2023-12-04T09:16:31;95920.41;;;3.85;52.66
13581;BME280;6861;46.170;7.222;2023-12-04T09:19:40;95919.31;;;3.93;52.83
13581;BME280;6861;46.170;7.222;2023-12-04T09:22:23;95930.88;;;3.90;52.70
13581;BME280;6861;46.170;7.222;2023-12-04T09:25:18;95923.31;;;3.77;52.70
13581;BME280;6861;46.170;7.222;2023-12-04T09:27:49;95923.66;;;3.69;52.96
13581;BME280;6861;46.170;7.222;2023-12-04T09:30:20;95927.25;;;3.68;52.73
13581;BME280;6861;46.170;7.222;2023-12-04T09:32:55;95914.38;;;3.50;53.30
13581;BME280;6861;46.170;7.222;2023-12-04T09:35:25;95919.53;;;3.38;53.41
13581;BME280;6861;46.170;7.222;2023-12-04T09:37:56;95923.53;;;3.22;53.86
13581;BME280;6861;46.170;7.222;2023-12-04T09:40:30;95912.47;;;3.15;53.79
13581;BME280;6861;46.170;7.222;2023-12-04T09:43:06;95902.72;;;3.17;53.82
13581;BME280;6861;46.170;7.222;2023-12-04T09:46:08;95907.75;;;3.12;53.78
13581;BME280;6861;46.170;7.222;2023-12-04T09:48:40;95900.78;;;3.13;53.57
13581;BME280;6861;46.170;7.222;2023-12-04T09:51:15;95898.56;;;3.16;53.39
13581;BME280;6861;46.170;7.222;2023-12-04T09:53:50;95882.69;;;3.13;54.11
13581;BME280;6861;46.170;7.222;2023-12-04T09:56:26;95868.09;;;3.18;54.36
13581;BME280;6861;46.170;7.222;2023-12-04T09:58:59;95873.22;;;3.37;53.69
13581;BME280;6861;46.170;7.222;2023-12-04T10:01:48;95871.53;;;3.54;53.79
13581;BME280;6861;46.170;7.222;2023-12-04T10:04:21;95872.22;;;3.61;54.06
13581;BME280;6861;46.170;7.222;2023-12-04T10:07:02;95883.13;;;3.63;53.82
13581;BME280;6861;46.170;7.222;2023-12-04T10:09:46;95889.00;;;3.70;54.05
13581;BME280;6861;46.170;7.222;2023-12-04T10:12:19;95881.25;;;3.82;53.92
13581;BME280;6861;46.170;7.222;2023-12-04T10:15:04;95881.50;;;3.92;53.41
13581;BME280;6861;46.170;7.222;2023-12-04T10:17:38;95890.84;;;4.05;53.28
13581;BME280;6861;46.170;7.222;2023-12-04T10:20:11;95875.31;;;4.05;53.60
13581;BME280;6861;46.170;7.222;2023-12-04T10:22:55;95880.94;;;4.02;53.30
13581;BME280;6861;46.170;7.222;2023-12-04T10:25:31;95869.34;;;4.04;53.42
13581;BME280;6861;46.170;7.222;2023-12-04T10:28:10;95863.16;;;4.05;53.23
13581;BME280;6861;46.170;7.222;2023-12-04T10:30:43;95864.03;;;4.11;53.27
13581;BME280;6861;46.170;7.222;2023-12-04T10:33:13;95854.03;;;4.14;53.24
13581;BME280;6861;46.170;7.222;2023-12-04T10:35:44;95862.03;;;4.13;52.83
13581;BME280;6861;46.170;7.222;2023-12-04T10:38:14;95853.22;;;4.14;52.87
13581;BME280;6861;46.170;7.222;2023-12-04T10:40:42;95855.38;;;4.17;52.85
13581;BME280;6861;46.170;7.222;2023-12-04T10:43:18;95855.47;;;4.22;53.06
13581;BME280;6861;46.170;7.222;2023-12-04T10:45:50;95845.56;;;4.19;52.89
13581;BME280;6861;46.170;7.222;2023-12-04T10:48:21;95836.47;;;4.16;52.89
13581;BME280;6861;46.170;7.222;2023-12-04T10:50:53;95843.88;;;4.24;53.44
13581;BME280;6861;46.170;7.222;2023-12-04T10:53:29;95842.50;;;4.34;53.52
13581;BME280;6861;46.170;7.222;2023-12-04T10:56:01;95834.97;;;4.32;53.27
13581;BME280;6861;46.170;7.222;2023-12-04T10:58:34;95828.22;;;4.31;53.06
13581;BME280;6861;46.170;7.222;2023-12-04T11:01:06;95843.94;;;4.41;53.11
13581;BME280;6861;46.170;7.222;2023-12-04T11:03:43;95831.22;;;4.40;53.39
13581;BME280;6861;46.170;7.222;2023-12-04T11:06:16;95832.47;;;4.37;53.79
13581;BME280;6861;46.170;7.222;2023-12-04T11:08:48;95821.66;;;4.40;53.61
13581;BME280;6861;46.170;7.222;2023-12-04T11:11:21;95821.91;;;4.27;53.70
13581;BME280;6861;46.170;7.222;2023-12-04T11:13:56;95822.59;;;4.22;53.82
13581;BME280;6861;46.170;7.222;2023-12-04T11:16:30;95817.75;;;4.26;54.03
13581;BME280;6861;46.170;7.222;2023-12-04T11:19:11;95826.50;;;4.37;53.68
13581;BME280;6861;46.170;7.222;2023-12-04T11:21:49;95819.81;;;4.52;52.89
13581;BME280;6861;46.170;7.222;2023-12-04T11:24:22;95818.41;;;4.73;52.32
13581;BME280;6861;46.170;7.222;2023-12-04T11:26:53;95812.56;;;4.94;52.44
13581;BME280;6861;46.170;7.222;2023-12-04T11:29:24;95817.63;;;5.01;52.24
13581;BME280;6861;46.170;7.222;2023-12-04T11:31:53;95808.81;;;5.02;52.26
13581;BME280;6861;46.170;7.222;2023-12-04T11:34:26;95801.50;;;4.99;52.38
13581;BME280;6861;46.170;7.222;2023-12-04T11:36:57;95806.03;;;4.92;52.65
13581;BME280;6861;46.170;7.222;2023-12-04T11:39:26;95794.47;;;4.83;52.84
13581;BME280;6861;46.170;7.222;2023-12-04T11:41:58;95796.09;;;4.72;53.32
13581;BME280;6861;46.170;7.222;2023-12-04T11:44:27;95802.63;;;4.75;53.84
13581;BME280;6861;46.170;7.222;2023-12-04T11:47:04;95803.63;;;4.74;53.27
13581;BME280;6861;46.170;7.222;2023-12-04T11:49:36;95806.22;;;4.74;53.10
13581;BME280;6861;46.170;7.222;2023-12-04T11:52:08;95811.69;;;4.60;53.16
13581;BME280;6861;46.170;7.222;2023-12-04T11:54:57;95810.47;;;4.51;53.59
13581;BME280;6861;46.170;7.222;2023-12-04T11:57:32;95802.81;;;4.45;53.85
13581;BME280;6861;46.170;7.222;2023-12-04T12:00:10;95807.13;;;4.39;53.83
13581;BME280;6861;46.170;7.222;2023-12-04T12:02:40;95794.63;;;4.36;54.05
13581;BME280;6861;46.170;7.222;2023-12-04T12:05:30;95795.88;;;4.34;54.03
13581;BME280;6861;46.170;7.222;2023-12-04T12:08:05;95791.97;;;4.31;54.53
13581;BME280;6861;46.170;7.222;2023-12-04T12:10:35;95801.94;;;4.39;53.79
13581;BME280;6861;46.170;7.222;2023-12-04T12:13:04;95790.38;;;4.30;53.92
13581;BME280;6861;46.170;7.222;2023-12-04T12:15:33;95781.13;;;4.34;53.65
13581;BME280;6861;46.170;7.222;2023-12-04T12:18:02;95778.63;;;4.39;53.73
13581;BME280;6861;46.170;7.222;2023-12-04T12:20:32;95772.97;;;4.42;53.53
13581;BME280;6861;46.170;7.222;2023-12-04T12:23:05;95777.91;;;4.55;53.70
13581;BME280;6861;46.170;7.222;2023-12-04T12:25:34;95774.47;;;4.67;53.64
13581;BME280;6861;46.170;7.222;2023-12-04T12:28:06;95783.13;;;4.72;53.15
13581;BME280;6861;46.170;7.222;2023-12-04T12:30:35;95773.56;;;4.73;53.51
13581;BME280;6861;46.170;7.222;2023-12-04T12:33:04;95772.25;;;4.87;53.52
13581;BME280;6861;46.170;7.222;2023-12-04T12:35:33;95764.41;;;4.99;53.31
13581;BME280;6861;46.170;7.222;2023-12-04T12:38:04;95764.19;;;5.17;52.62
13581;BME280;6861;46.170;7.222;2023-12-04T12:40:33;95764.03;;;5.40;52.68
13581;BME280;6861;46.170;7.222;2023-12-04T12:43:05;95751.13;;;5.45;52.13
13581;BME280;6861;46.170;7.222;2023-12-04T12:45:41;95751.44;;;5.49;51.55
13581;BME280;6861;46.170;7.222;2023-12-04T12:48:11;95763.88;;;5.47;51.79
13581;BME280;6861;46.170;7.222;2023-12-04T12:50:41;95749.72;;;5.38;51.86
13581;BME280;6861;46.170;7.222;2023-12-04T12:53:12;95748.84;;;5.32;52.15
13581;BME280;6861;46.170;7.222;2023-12-04T12:55:42;95741.84;;;5.33;52.60
13581;BME280;6861;46.170;7.222;2023-12-04T12:58:12;95734.69;;;5.40;52.44
13581;BME280;6861;46.170;7.222;2023-12-04T13:00:47;95727.38;;;5.37;51.99
13581;BME280;6861;46.170;7.222;2023-12-04T13:03:16;95717.78;;;5.37;52.34
13581;BME280;6861;46.170;7.222;2023-12-04T13:05:46;95716.06;;;5.43;52.27
13581;BME280;6861;46.170;7.222;2023-12-04T13:08:17;95715.91;;;5.49;51.91
13581;BME280;6861;46.170;7.222;2023-12-04T13:10:48;95724.53;;;5.55;51.66
13581;BME280;6861;46.170;7.222;2023-12-04T13:13:21;95711.97;;;5.47;51.94
13581;BME280;6861;46.170;7.222;2023-12-04T13:15:53;95718.25;;;5.51;52.28
13581;BME280;6861;46.170;7.222;2023-12-04T13:18:24;95704.81;;;5.54;52.24
13581;BME280;6861;46.170;7.222;2023-12-04T13:20:54;95706.31;;;5.50;51.78
13581;BME280;6861;46.170;7.222;2023-12-04T13:23:25;95709.38;;;5.47;52.16
13581;BME280;6861;46.170;7.222;2023-12-04T13:25:54;95707.25;;;5.44;52.48
13581;BME280;6861;46.170;7.222;2023-12-04T13:28:23;95703.50;;;5.35;52.83
13581;BME280;6861;46.170;7.222;2023-12-04T13:31:06;95700.81;;;5.30;52.70
13581;BME280;6861;46.170;7.222;2023-12-04T13:33:37;95694.06;;;5.28;52.56
13581;BME280;6861;46.170;7.222;2023-12-04T13:36:08;95696.09;;;5.26;52.61
13581;BME280;6861;46.170;7.222;2023-12-04T13:38:40;95701.28;;;5.26;52.70
13581;BME280;6861;46.170;7.222;2023-12-04T13:41:11;95698.63;;;5.21;52.83